Hovedside
METAR-TAF:

METAR-TAF

Lufthavner :

Matam, Senegal

breddegrad: 15-39N, lengdegrad: 013-15W, høyde over havet: 15 m

Gjeldene værobservasjon

Denne rapporten ble laget for 1 time og 14 minutter siden, klokken 03:00 UTC
Vind 2 kt fra Nord-nordvest
Temperatur 25°C
Luftfuktighet 30%
Trykk 1011 hPa
Sikt 10 km eller mer
ingen skyer under 1500 m og ingen bygeskyer

METAR: GOSM 290300Z 34002KT CAVOK 25/06 Q1011

Tid: 04:14 (04:14 UTC)


TAF: fraværende

Værobservasjoner og værvarsel for over 4000 flyplasser (METAR- og TAF-rapporter).

Tilgjengelige stasjoner er representert av de røde og gule prikkene på kartet.

Hold musepekeren over prikken for å se navnet på stasjonen.

Klikk så for å se værobservasjoner og -varsler.

For å forandre kartet kan du klikke på den grønne knappen med svart kryss for å zoome inn, på den grønne knappen med strek for å zoome ut, eller på de grønne pilene for å se tilstøtende kart.


METAR-TAF: